createdAt,value
2023-03-10T00:01:24.113Z,6.07
2023-03-10T00:03:54.004Z,5.80
2023-03-10T00:06:24.124Z,5.63
2023-03-10T00:08:52.474Z,3.53
2023-03-10T00:11:20.974Z,4.93
2023-03-10T00:13:49.052Z,4.70
2023-03-10T00:16:25.560Z,5.80
2023-03-10T00:18:54.591Z,6.50
2023-03-10T00:21:25.234Z,5.50
2023-03-10T00:23:53.851Z,4.83
2023-03-10T00:26:23.133Z,4.73
2023-03-10T00:28:51.528Z,6.00
2023-03-10T00:31:21.979Z,5.03
2023-03-10T00:33:52.201Z,5.57
2023-03-10T00:36:25.884Z,5.00
2023-03-10T00:38:55.949Z,5.90
2023-03-10T00:41:26.767Z,5.13
2023-03-10T00:43:55.146Z,6.18
2023-03-10T00:46:23.835Z,5.38
2023-03-10T00:48:51.897Z,5.68
2023-03-10T00:51:21.055Z,5.22
2023-03-10T00:53:50.079Z,5.87
2023-03-10T00:56:23.422Z,5.88
2023-03-10T00:58:53.652Z,4.65
2023-03-10T01:01:30.946Z,5.38
2023-03-10T01:04:01.748Z,5.60
2023-03-10T01:06:30.193Z,5.63
2023-03-10T01:08:58.186Z,6.00
2023-03-10T01:11:28.390Z,5.65
2023-03-10T01:13:59.803Z,5.57
2023-03-10T01:16:29.031Z,5.43
2023-03-10T01:18:58.038Z,6.10
2023-03-10T01:21:32.040Z,5.53
2023-03-10T01:24:00.920Z,6.43
2023-03-10T01:26:29.477Z,4.93
2023-03-10T01:28:57.443Z,5.55
2023-03-10T01:31:25.374Z,6.05
2023-03-10T01:33:55.658Z,5.53
2023-03-10T01:36:26.265Z,5.55
2023-03-10T01:38:56.189Z,5.35
2023-03-10T01:41:24.679Z,6.05
2023-03-10T01:43:55.494Z,4.95
2023-03-10T01:46:40.076Z,6.00
2023-03-10T01:49:16.653Z,5.30
2023-03-10T01:52:00.095Z,5.47
2023-03-10T01:54:44.009Z,5.30
2023-03-10T01:57:13.717Z,6.28
2023-03-10T01:59:42.769Z,4.13
2023-03-10T02:02:11.260Z,5.55
2023-03-10T02:04:45.658Z,5.43
2023-03-10T02:07:15.953Z,5.65
2023-03-10T02:09:46.450Z,5.53
2023-03-10T02:12:15.572Z,4.90
2023-03-10T02:14:47.259Z,5.13
2023-03-10T02:17:19.519Z,5.70
2023-03-10T02:20:12.151Z,3.80
2023-03-10T02:22:40.931Z,5.80
2023-03-10T02:25:22.129Z,6.20
2023-03-10T02:27:50.964Z,5.23
2023-03-10T02:30:32.770Z,5.93
2023-03-10T02:33:07.874Z,4.65
2023-03-10T02:38:08.613Z,3.83
2023-03-10T02:40:55.817Z,3.60
2023-03-10T02:43:32.680Z,5.35
2023-03-10T02:46:10.474Z,5.38
2023-03-10T02:48:42.769Z,5.35
2023-03-10T02:51:24.852Z,5.50
2023-03-10T02:53:53.998Z,4.78
2023-03-10T02:56:22.318Z,5.05
2023-03-10T02:58:51.333Z,5.43
2023-03-10T03:01:19.994Z,4.68
2023-03-10T03:03:48.187Z,5.47
2023-03-10T03:06:16.209Z,5.45
2023-03-10T03:08:45.828Z,6.10
2023-03-10T03:11:17.723Z,4.82
2023-03-10T03:13:45.691Z,5.07
2023-03-10T03:16:14.028Z,4.80
2023-03-10T03:18:44.327Z,6.18
2023-03-10T03:21:17.218Z,5.43
2023-03-10T03:23:47.299Z,4.95
2023-03-10T03:26:22.419Z,5.32
2023-03-10T03:28:53.360Z,6.07
2023-03-10T03:31:26.317Z,6.18
2023-03-10T03:34:04.523Z,6.00
2023-03-10T03:36:32.860Z,6.38
2023-03-10T03:39:00.930Z,3.70
2023-03-10T03:41:31.954Z,6.77
2023-03-10T03:44:00.538Z,5.97
2023-03-10T03:46:29.683Z,6.63
2023-03-10T03:49:00.358Z,5.88
2023-03-10T03:51:29.670Z,7.22
2023-03-10T03:53:57.890Z,4.45
2023-03-10T03:56:26.072Z,7.28
2023-03-10T03:58:54.085Z,7.28
2023-03-10T04:01:22.109Z,5.57
2023-03-10T04:03:54.618Z,6.87
2023-03-10T04:06:23.390Z,6.88
2023-03-10T04:08:52.534Z,6.57
2023-03-10T04:11:22.466Z,8.23
2023-03-10T04:13:51.873Z,6.77
2023-03-10T04:16:20.873Z,6.95
2023-03-10T04:18:48.933Z,6.77
2023-03-10T04:21:18.220Z,7.63
2023-03-10T04:23:48.640Z,6.07
2023-03-10T04:26:20.650Z,5.88
2023-03-10T04:28:48.616Z,7.10
2023-03-10T04:31:20.144Z,7.03
2023-03-10T04:33:50.433Z,6.68
2023-03-10T04:36:20.112Z,6.37
2023-03-10T04:38:51.513Z,6.67
2023-03-10T04:41:22.062Z,7.18
2023-03-10T04:43:50.503Z,5.90
2023-03-10T04:46:19.879Z,6.93
2023-03-10T04:48:47.952Z,3.28
2023-03-10T04:51:16.733Z,5.63
2023-03-10T04:53:51.700Z,5.20
2023-03-10T04:56:20.607Z,4.97
2023-03-10T04:58:48.806Z,6.00
2023-03-10T05:01:17.345Z,4.85
2023-03-10T05:03:55.681Z,5.97
2023-03-10T05:06:23.692Z,4.55
2023-03-10T05:09:05.958Z,6.50
2023-03-10T05:11:35.953Z,3.22
2023-03-10T05:14:04.116Z,5.87
2023-03-10T05:16:33.211Z,4.73
2023-03-10T05:19:01.203Z,4.97
2023-03-10T05:21:31.340Z,5.13
2023-03-10T05:24:00.832Z,5.83
2023-03-10T05:26:32.716Z,5.10
2023-03-10T05:29:02.939Z,5.07
2023-03-10T05:31:45.154Z,2.57
2023-03-10T05:34:19.161Z,5.15
2023-03-10T05:36:48.788Z,3.77
2023-03-10T05:39:18.248Z,4.37
2023-03-10T05:41:50.296Z,4.60
2023-03-10T05:44:19.585Z,4.77
2023-03-10T05:46:47.643Z,3.90
2023-03-10T05:49:16.050Z,4.17
2023-03-10T05:51:44.418Z,4.15
2023-03-10T05:54:12.395Z,3.53
2023-03-10T05:56:40.269Z,3.60
2023-03-10T05:59:08.458Z,2.00
2023-03-10T06:01:38.453Z,3.33
2023-03-10T06:04:06.729Z,3.33
2023-03-10T06:06:35.481Z,3.77
2023-03-10T06:09:03.404Z,3.72
2023-03-10T06:11:31.245Z,2.87
2023-03-10T06:13:59.154Z,2.70
2023-03-10T06:16:27.192Z,2.60
2023-03-10T06:18:57.140Z,3.75
2023-03-10T06:21:26.182Z,3.58
2023-03-10T06:23:54.158Z,3.25
2023-03-10T06:26:22.881Z,3.60
2023-03-10T06:28:50.936Z,4.10
2023-03-10T06:31:27.134Z,3.13
2023-03-10T06:33:55.842Z,3.78
2023-03-10T06:36:26.816Z,3.93
2023-03-10T06:39:02.920Z,3.53
2023-03-10T06:41:31.475Z,3.73
2023-03-10T06:44:00.048Z,1.52
2023-03-10T06:46:29.097Z,3.03
2023-03-10T06:48:58.233Z,2.20
2023-03-10T06:51:26.627Z,3.77
2023-03-10T06:53:55.154Z,2.47
2023-03-10T06:56:23.331Z,3.03
2023-03-10T06:58:52.451Z,3.97
2023-03-10T07:01:26.507Z,3.20
2023-03-10T07:03:54.566Z,2.23
2023-03-10T07:06:23.202Z,2.00
2023-03-10T07:08:52.654Z,1.97
2023-03-10T07:11:20.666Z,4.03
2023-03-10T07:13:48.776Z,1.77
2023-03-10T07:16:17.436Z,2.25
2023-03-10T07:18:45.707Z,3.17
2023-03-10T07:21:17.468Z,3.40
2023-03-10T07:23:46.178Z,3.65
2023-03-10T07:26:18.805Z,2.28
2023-03-10T07:28:46.858Z,3.50
2023-03-10T07:31:15.676Z,2.93
2023-03-10T07:33:43.972Z,2.97
2023-03-10T07:36:17.071Z,4.17
2023-03-10T07:38:45.552Z,4.18
2023-03-10T07:41:19.631Z,3.87
2023-03-10T07:43:48.155Z,2.72
2023-03-10T07:46:16.448Z,3.20
2023-03-10T07:48:44.726Z,4.53
2023-03-10T07:51:12.722Z,3.28
2023-03-10T07:53:40.663Z,4.03
2023-03-10T07:56:11.060Z,4.15
2023-03-10T07:58:39.742Z,2.60
2023-03-10T08:01:12.554Z,3.72
2023-03-10T08:03:40.816Z,2.80
2023-03-10T08:06:08.751Z,4.03
2023-03-10T08:08:37.148Z,4.80
2023-03-10T08:11:10.484Z,5.03
2023-03-10T08:13:39.222Z,2.35
2023-03-10T08:16:08.312Z,3.83
2023-03-10T08:18:36.736Z,4.38
2023-03-10T08:21:06.635Z,4.95
2023-03-10T08:23:36.764Z,4.65
2023-03-10T08:26:12.624Z,3.97
2023-03-10T08:28:40.996Z,4.50
2023-03-10T08:31:14.355Z,3.97
2023-03-10T08:33:42.989Z,3.33
2023-03-10T08:36:20.199Z,4.65
2023-03-10T08:38:49.623Z,3.83
2023-03-10T08:41:35.538Z,4.60
2023-03-10T08:44:05.209Z,3.53
2023-03-10T08:46:34.897Z,4.15
2023-03-10T08:49:06.341Z,2.72
2023-03-10T08:51:34.952Z,2.38
2023-03-10T08:54:03.705Z,3.22
2023-03-10T08:56:32.319Z,4.50
2023-03-10T08:59:00.926Z,5.43
2023-03-10T09:01:31.690Z,4.68
2023-03-10T09:04:01.108Z,3.83
2023-03-10T09:06:29.250Z,3.45
2023-03-10T09:08:57.505Z,3.28
2023-03-10T09:11:28.833Z,3.90
2023-03-10T09:13:57.152Z,4.70
2023-03-10T09:16:26.213Z,3.47
2023-03-10T09:18:56.839Z,6.15
2023-03-10T09:21:25.161Z,5.70
2023-03-10T09:23:54.092Z,4.05
2023-03-10T09:26:22.999Z,4.50
2023-03-10T09:28:51.590Z,4.72
2023-03-10T09:31:35.717Z,5.75
2023-03-10T09:34:05.492Z,4.57
2023-03-10T09:36:33.979Z,3.75
2023-03-10T09:39:03.152Z,3.92
2023-03-10T09:41:58.171Z,4.65
2023-03-10T09:44:47.090Z,3.15
2023-03-10T09:47:33.208Z,3.72
2023-03-10T09:50:23.064Z,3.90
2023-03-10T09:53:19.396Z,4.03
2023-03-10T09:55:48.935Z,3.15
2023-03-10T09:58:54.686Z,4.60
2023-03-10T10:01:28.051Z,3.38
2023-03-10T10:04:28.066Z,4.55
2023-03-10T10:06:58.334Z,4.47
2023-03-10T10:09:43.481Z,3.30
2023-03-10T10:12:17.071Z,4.95
2023-03-10T10:14:56.702Z,4.18
2023-03-10T10:17:53.762Z,2.10
2023-03-10T10:20:32.166Z,3.92
2023-03-10T10:23:00.357Z,3.28
2023-03-10T10:25:32.257Z,3.63
2023-03-10T10:28:04.809Z,3.58
2023-03-10T10:30:37.595Z,3.55
2023-03-10T10:33:14.159Z,2.30
2023-03-10T10:36:03.147Z,3.75
2023-03-10T10:38:32.487Z,3.78
2023-03-10T10:41:07.323Z,3.22
2023-03-10T10:43:43.860Z,3.63
2023-03-10T10:46:14.129Z,3.78
2023-03-10T10:48:47.811Z,3.28
2023-03-10T10:51:27.159Z,4.68
2023-03-10T10:53:56.188Z,4.53
2023-03-10T10:56:24.454Z,3.60
2023-03-10T10:59:03.853Z,4.55
2023-03-10T11:01:52.425Z,4.00
2023-03-10T11:04:21.921Z,3.83
2023-03-10T11:06:51.312Z,3.00
2023-03-10T11:09:23.795Z,3.03
2023-03-10T11:12:20.081Z,3.65
2023-03-10T11:15:04.348Z,3.72
2023-03-10T11:17:50.054Z,3.47
2023-03-10T11:20:46.578Z,2.35
2023-03-10T11:23:17.336Z,4.88
2023-03-10T11:25:52.520Z,4.38
2023-03-10T11:28:51.956Z,3.92
2023-03-10T11:31:40.183Z,3.53
2023-03-10T11:34:11.164Z,3.65
2023-03-10T11:36:55.343Z,3.33
2023-03-10T11:40:07.710Z,2.88
2023-03-10T11:42:59.952Z,4.93
2023-03-10T11:45:46.827Z,3.97
2023-03-10T11:48:29.554Z,3.15
2023-03-10T11:51:00.857Z,2.60
2023-03-10T11:53:44.179Z,4.60
2023-03-10T11:56:17.606Z,4.25
2023-03-10T11:58:55.896Z,3.78
2023-03-10T12:01:32.512Z,2.72
2023-03-10T12:04:31.850Z,3.60
2023-03-10T12:07:19.721Z,3.67
2023-03-10T12:09:54.638Z,3.35
2023-03-10T12:14:57.489Z,1.98
2023-03-10T12:17:25.606Z,1.77
2023-03-10T12:20:12.213Z,2.50
2023-03-10T12:22:48.012Z,2.65
2023-03-10T12:25:33.094Z,3.27
2023-03-10T12:28:20.068Z,3.65
2023-03-10T12:31:07.083Z,4.00
2023-03-10T12:33:38.805Z,2.42
2023-03-10T12:36:19.693Z,3.50
2023-03-10T12:38:54.396Z,3.97
2023-03-10T12:41:28.910Z,2.60
2023-03-10T12:43:59.903Z,2.97
2023-03-10T12:46:47.395Z,3.33
2023-03-10T12:49:22.233Z,3.17
2023-03-10T12:52:13.442Z,3.83
2023-03-10T12:55:13.541Z,2.47
2023-03-10T12:57:51.106Z,3.45
2023-03-10T13:00:57.211Z,3.13
2023-03-10T13:03:35.813Z,3.05
2023-03-10T13:06:08.729Z,3.13
2023-03-10T13:08:47.463Z,3.20
2023-03-10T13:11:31.566Z,4.40
2023-03-10T13:14:14.702Z,4.33
2023-03-10T13:17:00.500Z,2.77
2023-03-10T13:19:34.328Z,3.97
2023-03-10T13:22:04.750Z,4.47
2023-03-10T13:24:35.896Z,3.35
2023-03-10T13:27:17.286Z,3.47
2023-03-10T13:30:11.644Z,3.47
2023-03-10T13:32:39.762Z,2.80
2023-03-10T13:35:26.281Z,2.65
2023-03-10T13:38:09.499Z,3.37
2023-03-10T13:40:40.985Z,2.97
2023-03-10T13:43:26.813Z,3.78
2023-03-10T13:45:56.212Z,2.63
2023-03-10T13:48:26.023Z,3.80
2023-03-10T13:51:18.168Z,3.83
2023-03-10T13:53:48.139Z,4.13
2023-03-10T13:56:24.265Z,2.47
2023-03-10T13:58:54.985Z,3.33
2023-03-10T14:01:29.166Z,3.00
2023-03-10T14:04:06.021Z,2.72
2023-03-10T14:06:35.155Z,3.45
2023-03-10T14:09:20.693Z,2.60
2023-03-10T14:11:50.356Z,3.10
2023-03-10T14:14:30.059Z,2.90
2023-03-10T14:17:01.213Z,3.30
2023-03-10T14:19:42.578Z,4.97
2023-03-10T14:22:31.869Z,3.73
2023-03-10T14:25:01.969Z,3.53
2023-03-10T14:27:33.102Z,4.37
2023-03-10T14:30:04.089Z,2.93
2023-03-10T14:32:31.992Z,5.00
2023-03-10T14:35:00.099Z,3.97
2023-03-10T14:37:28.087Z,4.30
2023-03-10T14:39:56.013Z,4.17
2023-03-10T14:42:27.022Z,5.13
2023-03-10T14:44:54.946Z,4.13
2023-03-10T14:47:23.113Z,4.07
2023-03-10T14:49:51.394Z,4.10
2023-03-10T14:52:20.249Z,5.10
2023-03-10T14:54:48.188Z,4.83
2023-03-10T14:57:20.771Z,4.67
2023-03-10T14:59:49.433Z,5.97
2023-03-10T15:02:24.182Z,5.03
2023-03-10T15:04:52.510Z,4.20
2023-03-10T15:07:20.513Z,5.60
2023-03-10T15:09:49.517Z,6.50
2023-03-10T15:12:19.170Z,5.37
2023-03-10T15:14:54.023Z,5.93
2023-03-10T15:17:22.380Z,4.32
2023-03-10T15:19:54.917Z,3.97
2023-03-10T15:22:22.870Z,4.40
2023-03-10T15:24:50.953Z,4.83
2023-03-10T15:27:19.085Z,6.40
2023-03-10T15:29:47.540Z,6.73
2023-03-10T15:32:15.477Z,7.10
2023-03-10T15:34:43.601Z,8.87
2023-03-10T15:37:12.594Z,6.53
2023-03-10T15:39:40.789Z,6.00
2023-03-10T15:42:08.777Z,6.03
2023-03-10T15:44:36.800Z,4.63
2023-03-10T15:47:05.759Z,4.70
2023-03-10T15:49:34.544Z,3.50
2023-03-10T15:52:02.581Z,3.13
2023-03-10T15:54:32.674Z,3.73
2023-03-10T15:57:01.065Z,2.50
2023-03-10T15:59:30.532Z,2.37
2023-03-10T16:01:58.488Z,2.63
2023-03-10T16:04:26.635Z,2.87
2023-03-10T16:06:54.531Z,2.27
2023-03-10T16:09:22.574Z,2.37
2023-03-10T16:11:50.798Z,2.60
2023-03-10T16:14:18.830Z,2.33
2023-03-10T16:16:46.748Z,3.43
2023-03-10T16:19:14.608Z,4.13
2023-03-10T16:21:42.682Z,4.40
2023-03-10T16:24:11.215Z,2.60
2023-03-10T16:26:42.056Z,3.70
2023-03-10T16:29:11.217Z,4.07
2023-03-10T16:31:39.394Z,3.73
2023-03-10T16:34:07.540Z,2.87
2023-03-10T16:36:36.652Z,3.53
2023-03-10T16:39:09.532Z,2.83
2023-03-10T16:41:37.512Z,3.57
2023-03-10T16:44:07.545Z,3.13
2023-03-10T16:46:35.777Z,4.13
2023-03-10T16:49:03.759Z,2.93
2023-03-10T16:51:35.585Z,3.13
2023-03-10T16:54:09.676Z,3.30
2023-03-10T16:56:40.838Z,3.80
2023-03-10T16:59:11.850Z,2.80
2023-03-10T17:01:40.861Z,3.40
2023-03-10T17:04:08.974Z,3.43
2023-03-10T17:06:37.659Z,2.60
2023-03-10T17:09:07.463Z,2.90
2023-03-10T17:11:43.836Z,3.23
2023-03-10T17:14:14.580Z,2.70
2023-03-10T17:16:43.464Z,2.87
2023-03-10T17:19:20.297Z,3.27
2023-03-10T17:21:51.529Z,2.87
2023-03-10T17:24:20.905Z,3.57
2023-03-10T17:26:49.011Z,2.83
2023-03-10T17:29:17.162Z,2.90
2023-03-10T17:31:48.939Z,3.23
2023-03-10T17:34:17.867Z,2.00
2023-03-10T17:36:46.729Z,2.40
2023-03-10T17:39:19.052Z,3.00
2023-03-10T17:41:47.880Z,1.77
2023-03-10T17:44:16.920Z,2.77
2023-03-10T17:46:45.422Z,2.10
2023-03-10T17:49:15.114Z,2.40
2023-03-10T17:51:44.719Z,2.57
2023-03-10T17:54:15.455Z,1.90
2023-03-10T17:56:43.604Z,1.07
2023-03-10T17:59:14.308Z,1.20
2023-03-10T18:01:44.070Z,0.90
2023-03-10T18:04:12.848Z,0.80
2023-03-10T18:06:41.028Z,1.00
2023-03-10T18:09:12.398Z,0.90
2023-03-10T18:11:40.771Z,0.60
2023-03-10T18:14:11.115Z,0.70
2023-03-10T18:16:40.397Z,1.00
2023-03-10T18:19:11.533Z,0.77
2023-03-10T18:21:39.733Z,1.10
2023-03-10T18:24:08.823Z,1.80
2023-03-10T18:26:37.928Z,0.97
2023-03-10T18:29:05.867Z,0.70
2023-03-10T18:31:34.531Z,1.40
2023-03-10T18:34:04.401Z,1.23
2023-03-10T18:36:33.167Z,0.80
2023-03-10T18:39:03.693Z,0.87
2023-03-10T18:41:32.822Z,1.40
2023-03-10T18:44:01.291Z,1.20
2023-03-10T18:46:29.390Z,1.60
2023-03-10T18:48:57.600Z,1.63
2023-03-10T18:51:27.293Z,1.03
2023-03-10T18:53:55.683Z,1.40
2023-03-10T18:56:25.655Z,1.30
2023-03-10T18:58:53.744Z,1.30
2023-03-10T19:01:22.096Z,1.30
2023-03-10T19:03:50.037Z,0.63
2023-03-10T19:06:18.391Z,0.90
2023-03-10T19:08:46.351Z,1.07
2023-03-10T19:11:15.438Z,1.50
2023-03-10T19:13:45.022Z,1.27
2023-03-10T19:16:13.296Z,1.20
2023-03-10T19:18:41.216Z,1.20
2023-03-10T19:21:10.006Z,1.07
2023-03-10T19:23:38.075Z,1.17
2023-03-10T19:26:06.994Z,1.37
2023-03-10T19:28:36.694Z,0.97
2023-03-10T19:31:10.690Z,1.40
2023-03-10T19:33:40.079Z,1.30
2023-03-10T19:36:11.996Z,1.17
2023-03-10T19:38:41.794Z,1.37
2023-03-10T19:41:16.068Z,1.10
2023-03-10T19:43:45.628Z,1.25
2023-03-10T19:46:15.593Z,1.17
2023-03-10T19:48:44.666Z,1.17
2023-03-10T19:51:24.937Z,1.20
2023-03-10T19:53:57.284Z,1.20
2023-03-10T19:56:26.607Z,1.40
2023-03-10T19:58:55.123Z,1.30
2023-03-10T20:01:26.250Z,1.27
2023-03-10T20:03:57.943Z,1.67
2023-03-10T20:06:27.559Z,1.80
2023-03-10T20:08:57.585Z,1.40
2023-03-10T20:11:26.132Z,1.27
2023-03-10T20:13:54.832Z,0.90
2023-03-10T20:16:24.237Z,2.03
2023-03-10T20:18:52.605Z,1.50
2023-03-10T20:21:20.664Z,1.93
2023-03-10T20:23:48.756Z,1.90
2023-03-10T20:26:17.424Z,2.33
2023-03-10T20:28:46.196Z,1.90
2023-03-10T20:31:19.675Z,1.43
2023-03-10T20:33:47.626Z,0.90
2023-03-10T20:36:16.161Z,0.87
2023-03-10T20:38:45.243Z,1.27
2023-03-10T20:41:15.349Z,1.20
2023-03-10T20:43:43.899Z,1.27
2023-03-10T20:46:12.896Z,1.17
2023-03-10T20:48:41.358Z,0.80
2023-03-10T20:51:09.508Z,1.20
2023-03-10T20:53:39.951Z,0.93
2023-03-10T20:56:10.188Z,0.73
2023-03-10T20:58:38.855Z,0.80
2023-03-10T21:01:07.145Z,0.73
2023-03-10T21:03:35.520Z,0.90
2023-03-10T21:06:04.785Z,0.87
2023-03-10T21:08:42.271Z,1.00
2023-03-10T21:11:10.232Z,0.93
2023-03-10T21:13:38.258Z,0.67
2023-03-10T21:16:07.086Z,0.70
2023-03-10T21:18:35.250Z,1.00
2023-03-10T21:21:10.442Z,1.10
2023-03-10T21:23:44.504Z,0.70
2023-03-10T21:26:15.166Z,1.00
2023-03-10T21:28:43.700Z,0.90
2023-03-10T21:31:12.885Z,0.90
2023-03-10T21:33:41.871Z,0.73
2023-03-10T21:36:22.312Z,1.27
2023-03-10T21:38:51.716Z,0.80
2023-03-10T21:41:26.129Z,1.10
2023-03-10T21:43:58.731Z,1.75
2023-03-10T21:46:28.178Z,1.30
2023-03-10T21:48:56.328Z,1.37
2023-03-10T21:51:25.582Z,0.90
2023-03-10T21:53:54.260Z,1.00
2023-03-10T21:56:26.024Z,0.80
2023-03-10T21:58:54.344Z,0.97
2023-03-10T22:01:24.047Z,0.87
2023-03-10T22:03:52.162Z,0.90
2023-03-10T22:06:20.085Z,1.17
2023-03-10T22:08:48.183Z,1.57
2023-03-10T22:11:16.639Z,1.20
2023-03-10T22:13:45.082Z,0.90
2023-03-10T22:16:19.679Z,0.87
2023-03-10T22:18:49.800Z,0.45
2023-03-10T22:21:18.231Z,1.20
2023-03-10T22:23:46.346Z,0.97
2023-03-10T22:26:15.846Z,1.13
2023-03-10T22:28:43.861Z,1.40
2023-03-10T22:31:16.807Z,1.57
2023-03-10T22:33:44.766Z,1.77
2023-03-10T22:36:13.738Z,1.30
2023-03-10T22:38:41.658Z,3.10
2023-03-10T22:41:12.800Z,1.80
2023-03-10T22:43:41.463Z,1.77
2023-03-10T22:46:14.993Z,2.13
2023-03-10T22:48:44.180Z,1.53
2023-03-10T22:51:18.120Z,1.60
2023-03-10T22:53:47.113Z,2.20
2023-03-10T22:56:15.430Z,1.27
2023-03-10T22:58:43.461Z,1.93
2023-03-10T23:01:12.460Z,2.17
2023-03-10T23:03:41.652Z,2.80
2023-03-10T23:06:10.069Z,1.90
2023-03-10T23:08:37.910Z,1.73
2023-03-10T23:11:13.756Z,2.80
2023-03-10T23:13:44.757Z,3.47
2023-03-10T23:16:12.803Z,3.97
2023-03-10T23:18:41.388Z,2.53
2023-03-10T23:21:09.227Z,1.67
2023-03-10T23:23:39.340Z,4.43
2023-03-10T23:26:08.137Z,6.80
2023-03-10T23:28:36.402Z,8.03
2023-03-10T23:31:04.760Z,4.87
2023-03-10T23:33:33.001Z,2.87
2023-03-10T23:36:02.516Z,1.80
2023-03-10T23:38:30.638Z,2.43
2023-03-10T23:40:58.582Z,2.23
2023-03-10T23:43:28.337Z,1.90
2023-03-10T23:45:56.908Z,1.47
2023-03-10T23:48:25.047Z,2.40
2023-03-10T23:50:53.024Z,2.30
2023-03-10T23:53:21.202Z,2.10
2023-03-10T23:55:49.527Z,1.90
2023-03-10T23:58:19.592Z,1.90
